Terminal Aerodrome Forecast
Issued by NWS Kansas City/Pleasant Hill, MO

Home | Current Version | Previous Version | Text Only | Print | Product List | Glossary On
Versions: 1 2 3 4 5 6 7 8 9 10 11 12 13 14 15 16 17 18
000
FTUS43 KEAX 251600 AAC
TAFMCI
TAF AMD
KMCI 251609Z 2516/2612 01005KT 4SM BR OVC004
     FM251800 02013KT P6SM SCT025 OVC130
     FM260200 01009KT 6SM -RA BR BKN030 OVC090
     FM260600 35005KT P6SM SCT040 BKN180=

USA.gov is the U.S. government's official web portal to all federal, state and local government web resources and services.